JST201 YMML-YSSY
Flight info
| Callsign | JST201 |
|---|---|
| Flight time | 1h 5m |
| Altitude | 33000 |
| Route | ML H129 DOSEL Y59 RIVET |
| Aircraft | A320/M-SDE3FGHIRWY/LB1 |
Departure
| Time | 2026-05-08 00:38 |
|---|---|
| Airport | Melbourne Airport (YMML) |
Arrival
| Time | 2026-05-08 01:43 |
|---|---|
| Airport | Sydney Kingsford Smith International Airport (YSSY) |
| Time | Latitude | Longitude | Altitude | Speed | Heading |
|---|---|---|---|---|---|
| 2026-05-08 00:20 | -37.66637 | 144.85259 | 398 ft | 0 kts | 262° |
| 2026-05-08 00:27 | -37.66634 | 144.85283 | 397 ft | 4 kts | 262° |
| 2026-05-08 00:27 | -37.66631 | 144.85317 | 390 ft | 4 kts | 273° |
| 2026-05-08 00:27 | -37.66637 | 144.85348 | 394 ft | 4 kts | 309° |
| 2026-05-08 00:28 | -37.66650 | 144.85360 | 388 ft | 0 kts | 352° |
| 2026-05-08 00:30 | -37.66646 | 144.85359 | 394 ft | 1 kts | 352° |
| 2026-05-08 00:30 | -37.66645 | 144.85359 | 394 ft | 0 kts | 352° |
| 2026-05-08 00:30 | -37.66644 | 144.85359 | 394 ft | 0 kts | 352° |
| 2026-05-08 00:30 | -37.66633 | 144.85357 | 391 ft | 3 kts | 352° |
| 2026-05-08 00:31 | -37.66600 | 144.85350 | 396 ft | 6 kts | 347° |
| 2026-05-08 00:31 | -37.66555 | 144.85326 | 396 ft | 8 kts | 330° |
| 2026-05-08 00:31 | -37.66519 | 144.85276 | 400 ft | 8 kts | 303° |
| 2026-05-08 00:31 | -37.66499 | 144.85211 | 404 ft | 9 kts | 280° |
| 2026-05-08 00:32 | -37.66491 | 144.85131 | 406 ft | 10 kts | 286° |
| 2026-05-08 00:32 | -37.66463 | 144.85039 | 408 ft | 12 kts | 293° |
| 2026-05-08 00:32 | -37.66396 | 144.84959 | 407 ft | 15 kts | 322° |
| 2026-05-08 00:32 | -37.66357 | 144.84920 | 410 ft | 0 kts | 322° |
| 2026-05-08 00:34 | -37.66355 | 144.84918 | 410 ft | 2 kts | 322° |
| 2026-05-08 00:34 | -37.66334 | 144.84897 | 412 ft | 6 kts | 322° |
| 2026-05-08 00:35 | -37.66286 | 144.84850 | 408 ft | 11 kts | 322° |
| 2026-05-08 00:35 | -37.66226 | 144.84764 | 413 ft | 16 kts | 284° |
| 2026-05-08 00:35 | -37.66222 | 144.84706 | 413 ft | 0 kts | 273° |
| 2026-05-08 00:37 | -37.66222 | 144.84702 | 413 ft | 3 kts | 273° |
| 2026-05-08 00:37 | -37.66203 | 144.84336 | 410 ft | 85 kts | 274° |
| 2026-05-08 00:38 | -37.66103 | 144.81818 | 619 ft | 180 kts | 270° |
| 2026-05-08 00:38 | -37.65979 | 144.80218 | 1282 ft | 189 kts | 274° |
| 2026-05-08 00:38 | -37.65739 | 144.78528 | 2057 ft | 203 kts | 277° |
| 2026-05-08 00:38 | -37.65381 | 144.76775 | 2658 ft | 198 kts | 276° |
| 2026-05-08 00:39 | -37.65132 | 144.75129 | 3073 ft | 187 kts | 269° |
| 2026-05-08 00:39 | -37.64995 | 144.73515 | 3507 ft | 183 kts | 268° |
| 2026-05-08 00:39 | -37.64874 | 144.71914 | 4226 ft | 182 kts | 268° |
| 2026-05-08 00:39 | -37.64474 | 144.70360 | 4937 ft | 198 kts | 296° |
| 2026-05-08 00:40 | -37.63385 | 144.69164 | 5590 ft | 214 kts | 316° |
| 2026-05-08 00:40 | -37.62117 | 144.68085 | 6064 ft | 230 kts | 318° |
| 2026-05-08 00:40 | -37.60719 | 144.66901 | 6405 ft | 254 kts | 319° |
| 2026-05-08 00:40 | -37.59178 | 144.65601 | 6774 ft | 278 kts | 319° |
| 2026-05-08 00:41 | -37.57519 | 144.64287 | 7363 ft | 293 kts | 329° |
| 2026-05-08 00:41 | -37.55493 | 144.63646 | 8063 ft | 311 kts | 356° |
| 2026-05-08 00:41 | -37.53342 | 144.64145 | 8771 ft | 321 kts | 24° |
| 2026-05-08 00:41 | -37.51528 | 144.65774 | 9506 ft | 321 kts | 53° |
| 2026-05-08 00:42 | -37.50153 | 144.67996 | 10217 ft | 325 kts | 58° |
| 2026-05-08 00:42 | -37.48758 | 144.70338 | 10596 ft | 342 kts | 57° |
| 2026-05-08 00:42 | -37.47338 | 144.72848 | 10880 ft | 358 kts | 63° |
| 2026-05-08 00:42 | -37.46093 | 144.75594 | 11473 ft | 364 kts | 65° |
| 2026-05-08 00:43 | -37.44823 | 144.78381 | 12138 ft | 369 kts | 65° |
| 2026-05-08 00:43 | -37.43531 | 144.81187 | 12804 ft | 373 kts | 64° |
| 2026-05-08 00:43 | -37.42220 | 144.84025 | 13474 ft | 377 kts | 64° |
| 2026-05-08 00:43 | -37.40897 | 144.86892 | 14105 ft | 381 kts | 64° |
| 2026-05-08 00:44 | -37.39562 | 144.89792 | 14700 ft | 384 kts | 64° |
| 2026-05-08 00:44 | -37.38217 | 144.92714 | 15294 ft | 388 kts | 64° |
| 2026-05-08 00:44 | -37.36861 | 144.95661 | 15882 ft | 391 kts | 63° |
| 2026-05-08 00:44 | -37.35494 | 144.98628 | 16466 ft | 393 kts | 63° |
| 2026-05-08 00:45 | -37.34114 | 145.01619 | 17049 ft | 397 kts | 63° |
| 2026-05-08 00:45 | -37.32717 | 145.04644 | 17590 ft | 402 kts | 63° |
| 2026-05-08 00:45 | -37.31308 | 145.07691 | 18149 ft | 405 kts | 63° |
| 2026-05-08 00:45 | -37.29883 | 145.10766 | 18704 ft | 409 kts | 63° |
| 2026-05-08 00:46 | -37.28447 | 145.13863 | 19216 ft | 412 kts | 63° |
| 2026-05-08 00:46 | -37.26996 | 145.16990 | 19734 ft | 416 kts | 63° |
| 2026-05-08 00:46 | -37.25537 | 145.20138 | 20255 ft | 419 kts | 63° |
| 2026-05-08 00:46 | -37.24062 | 145.23319 | 20779 ft | 422 kts | 63° |
| 2026-05-08 00:47 | -37.22577 | 145.26517 | 21300 ft | 425 kts | 63° |
| 2026-05-08 00:47 | -37.21100 | 145.29693 | 21775 ft | 429 kts | 63° |
| 2026-05-08 00:47 | -37.19587 | 145.32936 | 22267 ft | 432 kts | 63° |
| 2026-05-08 00:47 | -37.18061 | 145.36203 | 22760 ft | 436 kts | 63° |
| 2026-05-08 00:48 | -37.16507 | 145.39485 | 23246 ft | 440 kts | 60° |
| 2026-05-08 00:48 | -37.14739 | 145.42639 | 23730 ft | 444 kts | 57° |
| 2026-05-08 00:48 | -37.12930 | 145.45797 | 24157 ft | 447 kts | 57° |
| 2026-05-08 00:48 | -37.11107 | 145.48971 | 24563 ft | 450 kts | 57° |
| 2026-05-08 00:49 | -37.09273 | 145.52160 | 24974 ft | 452 kts | 57° |
| 2026-05-08 00:49 | -37.07428 | 145.55367 | 25387 ft | 455 kts | 57° |
| 2026-05-08 00:49 | -37.05570 | 145.58602 | 25759 ft | 458 kts | 57° |
| 2026-05-08 00:49 | -37.03704 | 145.61846 | 26137 ft | 461 kts | 57° |
| 2026-05-08 00:50 | -37.01824 | 145.65105 | 26504 ft | 463 kts | 57° |
| 2026-05-08 00:50 | -36.99928 | 145.68390 | 26889 ft | 465 kts | 57° |
| 2026-05-08 00:50 | -36.98030 | 145.71679 | 27259 ft | 468 kts | 57° |
| 2026-05-08 00:50 | -36.96121 | 145.74982 | 27618 ft | 470 kts | 57° |
| 2026-05-08 00:51 | -36.94198 | 145.78305 | 27977 ft | 472 kts | 57° |
| 2026-05-08 00:51 | -36.92266 | 145.81640 | 28330 ft | 476 kts | 57° |
| 2026-05-08 00:51 | -36.90315 | 145.85006 | 28655 ft | 479 kts | 57° |
| 2026-05-08 00:51 | -36.88355 | 145.88382 | 28980 ft | 482 kts | 57° |
| 2026-05-08 00:52 | -36.86403 | 145.91737 | 29327 ft | 484 kts | 57° |
| 2026-05-08 00:52 | -36.84430 | 145.95133 | 29669 ft | 486 kts | 57° |
| 2026-05-08 00:52 | -36.82445 | 145.98552 | 30013 ft | 488 kts | 57° |
| 2026-05-08 00:52 | -36.80446 | 146.01990 | 30341 ft | 490 kts | 57° |
| 2026-05-08 00:53 | -36.78426 | 146.05455 | 30651 ft | 493 kts | 57° |
| 2026-05-08 00:53 | -36.76400 | 146.08923 | 30895 ft | 496 kts | 57° |
| 2026-05-08 00:53 | -36.74367 | 146.12394 | 31225 ft | 496 kts | 57° |
| 2026-05-08 00:53 | -36.72334 | 146.15859 | 31645 ft | 495 kts | 57° |
| 2026-05-08 00:54 | -36.70301 | 146.19325 | 32053 ft | 494 kts | 57° |
| 2026-05-08 00:54 | -36.68270 | 146.22790 | 32467 ft | 493 kts | 57° |
| 2026-05-08 00:54 | -36.66248 | 146.26239 | 32886 ft | 492 kts | 57° |
| 2026-05-08 00:54 | -36.64230 | 146.29674 | 33178 ft | 492 kts | 57° |
| 2026-05-08 00:55 | -36.62221 | 146.33090 | 33235 ft | 486 kts | 57° |
| 2026-05-08 00:55 | -36.58243 | 146.39841 | 33234 ft | 482 kts | 57° |
| 2026-05-08 00:56 | -36.54300 | 146.46519 | 33236 ft | 482 kts | 57° |
| 2026-05-08 00:56 | -36.50336 | 146.53233 | 33239 ft | 482 kts | 57° |
| 2026-05-08 00:57 | -36.46367 | 146.59939 | 33242 ft | 481 kts | 57° |
| 2026-05-08 00:57 | -36.42402 | 146.66622 | 33243 ft | 480 kts | 57° |
| 2026-05-08 00:58 | -36.38431 | 146.73309 | 33238 ft | 480 kts | 57° |
| 2026-05-08 00:58 | -36.34458 | 146.79969 | 33230 ft | 480 kts | 57° |
| 2026-05-08 00:59 | -36.30481 | 146.86630 | 33259 ft | 480 kts | 57° |
| 2026-05-08 00:59 | -36.26534 | 146.93235 | 33253 ft | 480 kts | 57° |
| 2026-05-08 01:00 | -36.22553 | 146.99881 | 33241 ft | 480 kts | 56° |
| 2026-05-08 01:00 | -36.18564 | 147.06525 | 33235 ft | 480 kts | 56° |
| 2026-05-08 01:01 | -36.14573 | 147.13154 | 33268 ft | 480 kts | 56° |
| 2026-05-08 01:01 | -36.10573 | 147.19775 | 33247 ft | 481 kts | 56° |
| 2026-05-08 01:02 | -36.06569 | 147.26401 | 33226 ft | 481 kts | 56° |
| 2026-05-08 01:02 | -36.03244 | 147.31903 | 33240 ft | 480 kts | 56° |
| 2026-05-08 01:03 | -35.99246 | 147.38510 | 33279 ft | 480 kts | 56° |
| 2026-05-08 01:03 | -35.95238 | 147.45111 | 33259 ft | 481 kts | 56° |
| 2026-05-08 01:04 | -35.91221 | 147.51710 | 33248 ft | 481 kts | 56° |
| 2026-05-08 01:04 | -35.87190 | 147.58313 | 33247 ft | 481 kts | 56° |
| 2026-05-08 01:05 | -35.83166 | 147.64903 | 33248 ft | 481 kts | 56° |
| 2026-05-08 01:05 | -35.79136 | 147.71498 | 33246 ft | 482 kts | 56° |
| 2026-05-08 01:06 | -35.75090 | 147.78087 | 33242 ft | 482 kts | 56° |
| 2026-05-08 01:06 | -35.71040 | 147.84673 | 33244 ft | 482 kts | 56° |
| 2026-05-08 01:07 | -35.66996 | 147.91256 | 33251 ft | 482 kts | 56° |
| 2026-05-08 01:07 | -35.62940 | 147.97842 | 33252 ft | 482 kts | 56° |
| 2026-05-08 01:08 | -35.58878 | 148.04411 | 33252 ft | 482 kts | 56° |
| 2026-05-08 01:08 | -35.54836 | 148.10917 | 33255 ft | 482 kts | 56° |
| 2026-05-08 01:09 | -35.50778 | 148.17457 | 33222 ft | 481 kts | 55° |
| 2026-05-08 01:09 | -35.46723 | 148.23990 | 33256 ft | 481 kts | 55° |
| 2026-05-08 01:10 | -35.42655 | 148.30528 | 33244 ft | 482 kts | 55° |
| 2026-05-08 01:10 | -35.38592 | 148.37055 | 33236 ft | 482 kts | 55° |
| 2026-05-08 01:11 | -35.34510 | 148.43581 | 33221 ft | 481 kts | 54° |
| 2026-05-08 01:11 | -35.30453 | 148.50055 | 33252 ft | 482 kts | 54° |
| 2026-05-08 01:12 | -35.26370 | 148.56572 | 33227 ft | 483 kts | 54° |
| 2026-05-08 01:12 | -35.22270 | 148.63084 | 33203 ft | 483 kts | 54° |
| 2026-05-08 01:13 | -35.18164 | 148.69605 | 33196 ft | 483 kts | 54° |
| 2026-05-08 01:13 | -35.14060 | 148.76119 | 33230 ft | 484 kts | 54° |
| 2026-05-08 01:14 | -35.09946 | 148.82633 | 33205 ft | 484 kts | 54° |
| 2026-05-08 01:14 | -35.05811 | 148.89143 | 33192 ft | 485 kts | 54° |
| 2026-05-08 01:15 | -35.01675 | 148.95661 | 33202 ft | 485 kts | 54° |
| 2026-05-08 01:15 | -34.97550 | 149.02175 | 33204 ft | 480 kts | 54° |
| 2026-05-08 01:15 | -34.95551 | 149.05319 | 32982 ft | 472 kts | 54° |
| 2026-05-08 01:16 | -34.93545 | 149.08467 | 32509 ft | 469 kts | 54° |
| 2026-05-08 01:16 | -34.91543 | 149.11602 | 32045 ft | 467 kts | 54° |
| 2026-05-08 01:16 | -34.89553 | 149.14715 | 31622 ft | 464 kts | 53° |
| 2026-05-08 01:16 | -34.87578 | 149.17808 | 31209 ft | 461 kts | 53° |
| 2026-05-08 01:17 | -34.85614 | 149.20883 | 30815 ft | 459 kts | 53° |
| 2026-05-08 01:17 | -34.83656 | 149.23945 | 30437 ft | 456 kts | 53° |
| 2026-05-08 01:17 | -34.81710 | 149.26988 | 30008 ft | 454 kts | 54° |
| 2026-05-08 01:17 | -34.79771 | 149.30016 | 29593 ft | 451 kts | 54° |
| 2026-05-08 01:18 | -34.77847 | 149.33018 | 29208 ft | 448 kts | 53° |
| 2026-05-08 01:18 | -34.75932 | 149.35998 | 28805 ft | 445 kts | 53° |
| 2026-05-08 01:18 | -34.74092 | 149.38999 | 28444 ft | 440 kts | 59° |
| 2026-05-08 01:18 | -34.72593 | 149.42217 | 28111 ft | 435 kts | 65° |
| 2026-05-08 01:19 | -34.71184 | 149.45464 | 27748 ft | 433 kts | 65° |
| 2026-05-08 01:19 | -34.69796 | 149.48651 | 27395 ft | 430 kts | 65° |
| 2026-05-08 01:19 | -34.68398 | 149.51853 | 27029 ft | 427 kts | 65° |
| 2026-05-08 01:19 | -34.67010 | 149.55033 | 26687 ft | 425 kts | 65° |
| 2026-05-08 01:20 | -34.65629 | 149.58191 | 26329 ft | 422 kts | 65° |
| 2026-05-08 01:20 | -34.64259 | 149.61326 | 25997 ft | 420 kts | 65° |
| 2026-05-08 01:20 | -34.62888 | 149.64461 | 25504 ft | 420 kts | 66° |
| 2026-05-08 01:20 | -34.61517 | 149.67589 | 25091 ft | 419 kts | 65° |
| 2026-05-08 01:21 | -34.60152 | 149.70700 | 24767 ft | 415 kts | 65° |
| 2026-05-08 01:21 | -34.58798 | 149.73780 | 24406 ft | 412 kts | 65° |
| 2026-05-08 01:21 | -34.57451 | 149.76846 | 24043 ft | 410 kts | 65° |
| 2026-05-08 01:21 | -34.56116 | 149.79887 | 23679 ft | 407 kts | 65° |
| 2026-05-08 01:22 | -34.54787 | 149.82907 | 23254 ft | 405 kts | 65° |
| 2026-05-08 01:22 | -34.53466 | 149.85903 | 22818 ft | 402 kts | 65° |
| 2026-05-08 01:22 | -34.52150 | 149.88886 | 22434 ft | 400 kts | 65° |
| 2026-05-08 01:22 | -34.50836 | 149.91862 | 21946 ft | 401 kts | 66° |
| 2026-05-08 01:23 | -34.49518 | 149.94846 | 21482 ft | 401 kts | 66° |
| 2026-05-08 01:23 | -34.48202 | 149.97827 | 21067 ft | 399 kts | 66° |
| 2026-05-08 01:23 | -34.46896 | 150.00785 | 20683 ft | 397 kts | 66° |
| 2026-05-08 01:23 | -34.45595 | 150.03730 | 20311 ft | 395 kts | 66° |
| 2026-05-08 01:24 | -34.44300 | 150.06655 | 19920 ft | 394 kts | 65° |
| 2026-05-08 01:24 | -34.43004 | 150.09574 | 19538 ft | 392 kts | 65° |
| 2026-05-08 01:24 | -34.41711 | 150.12478 | 19184 ft | 391 kts | 65° |
| 2026-05-08 01:24 | -34.40440 | 150.15333 | 18844 ft | 389 kts | 65° |
| 2026-05-08 01:25 | -34.39162 | 150.18207 | 18505 ft | 387 kts | 65° |
| 2026-05-08 01:25 | -34.37887 | 150.21080 | 18084 ft | 387 kts | 66° |
| 2026-05-08 01:25 | -34.36611 | 150.23948 | 17692 ft | 385 kts | 65° |
| 2026-05-08 01:25 | -34.35340 | 150.26792 | 17330 ft | 383 kts | 65° |
| 2026-05-08 01:26 | -34.34077 | 150.29614 | 16931 ft | 380 kts | 65° |
| 2026-05-08 01:26 | -34.32826 | 150.32410 | 16610 ft | 376 kts | 65° |
| 2026-05-08 01:26 | -34.31585 | 150.35183 | 16264 ft | 374 kts | 65° |
| 2026-05-08 01:26 | -34.30352 | 150.37943 | 15879 ft | 372 kts | 65° |
| 2026-05-08 01:27 | -34.29124 | 150.40688 | 15521 ft | 370 kts | 64° |
| 2026-05-08 01:27 | -34.27904 | 150.43407 | 15207 ft | 367 kts | 64° |
| 2026-05-08 01:27 | -34.26688 | 150.46111 | 14886 ft | 364 kts | 64° |
| 2026-05-08 01:27 | -34.25486 | 150.48796 | 14584 ft | 361 kts | 64° |
| 2026-05-08 01:28 | -34.24300 | 150.51458 | 14260 ft | 359 kts | 64° |
| 2026-05-08 01:28 | -34.23117 | 150.54108 | 13929 ft | 357 kts | 64° |
| 2026-05-08 01:28 | -34.21945 | 150.56734 | 13592 ft | 354 kts | 63° |
| 2026-05-08 01:28 | -34.20776 | 150.59342 | 13245 ft | 352 kts | 63° |
| 2026-05-08 01:29 | -34.19612 | 150.61927 | 12902 ft | 349 kts | 63° |
| 2026-05-08 01:29 | -34.18459 | 150.64491 | 12587 ft | 345 kts | 63° |
| 2026-05-08 01:29 | -34.17321 | 150.67031 | 12281 ft | 342 kts | 63° |
| 2026-05-08 01:29 | -34.16188 | 150.69550 | 11997 ft | 339 kts | 63° |
| 2026-05-08 01:30 | -34.15071 | 150.72033 | 11691 ft | 335 kts | 63° |
| 2026-05-08 01:30 | -34.13963 | 150.74496 | 11370 ft | 333 kts | 63° |
| 2026-05-08 01:30 | -34.12878 | 150.76907 | 11115 ft | 329 kts | 63° |
| 2026-05-08 01:30 | -34.11772 | 150.79356 | 10814 ft | 327 kts | 62° |
| 2026-05-08 01:31 | -34.10702 | 150.81720 | 10536 ft | 324 kts | 63° |
| 2026-05-08 01:31 | -34.09626 | 150.84100 | 10248 ft | 321 kts | 62° |
| 2026-05-08 01:31 | -34.08565 | 150.86456 | 9964 ft | 319 kts | 62° |
| 2026-05-08 01:31 | -34.07511 | 150.88797 | 9604 ft | 317 kts | 62° |
| 2026-05-08 01:32 | -34.06461 | 150.91125 | 9299 ft | 315 kts | 63° |
| 2026-05-08 01:32 | -34.05418 | 150.93438 | 8970 ft | 313 kts | 63° |
| 2026-05-08 01:32 | -34.04386 | 150.95734 | 8690 ft | 310 kts | 65° |
| 2026-05-08 01:32 | -34.03730 | 150.98156 | 8402 ft | 301 kts | 86° |
| 2026-05-08 01:33 | -34.03768 | 151.00636 | 8064 ft | 292 kts | 106° |
| 2026-05-08 01:33 | -34.04441 | 151.02883 | 7698 ft | 281 kts | 126° |
| 2026-05-08 01:33 | -34.05611 | 151.04700 | 7355 ft | 271 kts | 140° |
| 2026-05-08 01:33 | -34.06933 | 151.06306 | 6964 ft | 267 kts | 145° |
| 2026-05-08 01:34 | -34.08434 | 151.07545 | 6595 ft | 257 kts | 159° |
| 2026-05-08 01:34 | -34.10086 | 151.08268 | 6252 ft | 248 kts | 172° |
| 2026-05-08 01:34 | -34.11751 | 151.08700 | 5909 ft | 243 kts | 173° |
| 2026-05-08 01:34 | -34.13394 | 151.09124 | 5563 ft | 240 kts | 173° |
| 2026-05-08 01:35 | -34.15022 | 151.09546 | 5208 ft | 238 kts | 173° |
| 2026-05-08 01:35 | -34.16637 | 151.09964 | 4839 ft | 237 kts | 173° |
| 2026-05-08 01:35 | -34.18246 | 151.10379 | 4436 ft | 236 kts | 173° |
| 2026-05-08 01:35 | -34.19820 | 151.10784 | 4231 ft | 231 kts | 173° |
| 2026-05-08 01:36 | -34.21355 | 151.11217 | 4096 ft | 224 kts | 167° |
| 2026-05-08 01:36 | -34.22630 | 151.12300 | 3969 ft | 230 kts | 135° |
| 2026-05-08 01:36 | -34.23248 | 151.14093 | 3828 ft | 236 kts | 108° |
| 2026-05-08 01:36 | -34.23307 | 151.16085 | 3547 ft | 241 kts | 90° |
| 2026-05-08 01:37 | -34.22955 | 151.18086 | 3233 ft | 245 kts | 79° |
| 2026-05-08 01:37 | -34.22400 | 151.20027 | 3019 ft | 245 kts | 66° |
| 2026-05-08 01:37 | -34.21418 | 151.21695 | 2983 ft | 240 kts | 44° |
| 2026-05-08 01:37 | -34.20086 | 151.22852 | 2985 ft | 233 kts | 23° |
| 2026-05-08 01:38 | -34.18560 | 151.23433 | 2990 ft | 227 kts | 2° |
| 2026-05-08 01:38 | -34.17003 | 151.23417 | 2994 ft | 221 kts | 342° |
| 2026-05-08 01:38 | -34.15504 | 151.23032 | 2999 ft | 220 kts | 340° |
| 2026-05-08 01:38 | -34.14035 | 151.22650 | 3032 ft | 208 kts | 340° |
| 2026-05-08 01:39 | -34.12675 | 151.22299 | 2992 ft | 192 kts | 339° |
| 2026-05-08 01:39 | -34.11423 | 151.21974 | 2946 ft | 177 kts | 339° |
| 2026-05-08 01:39 | -34.10242 | 151.21664 | 2786 ft | 171 kts | 338° |
| 2026-05-08 01:39 | -34.09094 | 151.21363 | 2576 ft | 167 kts | 338° |
| 2026-05-08 01:40 | -34.07963 | 151.21068 | 2371 ft | 165 kts | 338° |
| 2026-05-08 01:40 | -34.06848 | 151.20777 | 2153 ft | 163 kts | 339° |
| 2026-05-08 01:40 | -34.05748 | 151.20490 | 1929 ft | 160 kts | 339° |
| 2026-05-08 01:40 | -34.04691 | 151.20217 | 1725 ft | 150 kts | 340° |
| 2026-05-08 01:41 | -34.03705 | 151.19961 | 1544 ft | 143 kts | 339° |
| 2026-05-08 01:41 | -34.02734 | 151.19707 | 1346 ft | 143 kts | 340° |
| 2026-05-08 01:41 | -34.01766 | 151.19455 | 1141 ft | 141 kts | 339° |
| 2026-05-08 01:41 | -34.00807 | 151.19204 | 957 ft | 143 kts | 338° |
| 2026-05-08 01:42 | -33.99837 | 151.18952 | 768 ft | 141 kts | 339° |
| 2026-05-08 01:42 | -33.98885 | 151.18706 | 572 ft | 138 kts | 338° |
| 2026-05-08 01:42 | -33.97954 | 151.18464 | 381 ft | 137 kts | 340° |
| 2026-05-08 01:42 | -33.97027 | 151.18223 | 187 ft | 135 kts | 339° |
| 2026-05-08 01:43 | -33.96128 | 151.17987 | 50 ft | 129 kts | 337° |
| 2026-05-08 01:43 | -33.95384 | 151.17787 | 29 ft | 86 kts | 349° |
| 2026-05-08 01:43 | -33.94950 | 151.17678 | 28 ft | 30 kts | 354° |
| 2026-05-08 01:43 | -33.94759 | 151.17643 | 29 ft | 18 kts | 353° |
| 2026-05-08 01:44 | -33.94627 | 151.17652 | 29 ft | 20 kts | 8° |
| 2026-05-08 01:44 | -33.94551 | 151.17671 | 30 ft | 0 kts | 13° |
| 2026-05-08 01:44 | -33.94548 | 151.17672 | 30 ft | 1 kts | 13° |
| 2026-05-08 01:44 | -33.94534 | 151.17676 | 30 ft | 3 kts | 16° |
| 2026-05-08 01:45 | -33.94509 | 151.17687 | 30 ft | 5 kts | 19° |
| 2026-05-08 01:45 | -33.94470 | 151.17702 | 30 ft | 7 kts | 17° |
| 2026-05-08 01:45 | -33.94455 | 151.17708 | 30 ft | 0 kts | 17° |
| 2026-05-08 01:46 | -33.94454 | 151.17708 | 30 ft | 1 kts | 17° |
| 2026-05-08 01:46 | -33.94442 | 151.17712 | 30 ft | 3 kts | 17° |
| 2026-05-08 01:47 | -33.94412 | 151.17724 | 30 ft | 6 kts | 17° |
| 2026-05-08 01:47 | -33.94365 | 151.17740 | 30 ft | 8 kts | 11° |
| 2026-05-08 01:47 | -33.94301 | 151.17726 | 30 ft | 11 kts | 344° |
| 2026-05-08 01:48 | -33.94180 | 151.17687 | 29 ft | 5 kts | 347° |
| 2026-05-08 01:48 | -33.94135 | 151.17674 | 29 ft | 8 kts | 347° |
| 2026-05-08 01:48 | -33.94066 | 151.17654 | 28 ft | 12 kts | 346° |
| 2026-05-08 01:48 | -33.93975 | 151.17627 | 29 ft | 15 kts | 346° |
| 2026-05-08 01:49 | -33.93902 | 151.17616 | 29 ft | 11 kts | 13° |
| 2026-05-08 01:49 | -33.93857 | 151.17688 | 29 ft | 12 kts | 59° |
| 2026-05-08 01:49 | -33.93778 | 151.17696 | 30 ft | 13 kts | 346° |
| 2026-05-08 01:49 | -33.93681 | 151.17659 | 30 ft | 16 kts | 332° |
| 2026-05-08 01:50 | -33.93570 | 151.17607 | 30 ft | 19 kts | 348° |
| 2026-05-08 01:50 | -33.93503 | 151.17609 | 30 ft | 7 kts | 63° |
| 2026-05-08 01:50 | -33.93511 | 151.17669 | 30 ft | 8 kts | 99° |
| 2026-05-08 01:50 | -33.93513 | 151.17683 | 30 ft | 3 kts | 99° |
| 2026-05-08 01:51 | -33.93515 | 151.17696 | 30 ft | 0 kts | 100° |